Pershing, Oklahoma
Current Conditions -  °F | °C
As of 4:53 PM on Wednesday 26 Nov 2014 (Local Time) from KBVO Reporting Station
Clear Clear  
Wind Chill: 41°   Ceiling: Unl
Heat Index: 45°   Visibility: 10mi
Dew Point: 24°   Wind: 7mph
Humidity: 44%   Direction: NA
Pressure: 30.26"   Gusts: NA
Location:  36.5242°N, 96.1387°W
Report Text: KBVO 262253Z VRB06KT 10SM CLR 07/M04 A3026 RMK AO2 SLP247 T00721044
Loading
Personal Weather Stations






























Interactive Weather Map New forecast layout! Learn more

10-Day Weather Forecast

Advertisements
Track Severe Weather on mobile